sensor_id;sensor_type;location;lat;lon;timestamp;P1;durP1;ratioP1;P2;durP2;ratioP2
22963;SDS011;11648;49.306;6.934;2023-04-07T00:01:24;11.63;;;7.57;;
22963;SDS011;11648;49.306;6.934;2023-04-07T00:03:51;9.57;;;7.73;;
22963;SDS011;11648;49.306;6.934;2023-04-07T00:06:18;11.97;;;7.67;;
22963;SDS011;11648;49.306;6.934;2023-04-07T00:08:44;9.53;;;7.67;;
22963;SDS011;11648;49.306;6.934;2023-04-07T00:11:11;11.20;;;7.50;;
22963;SDS011;11648;49.306;6.934;2023-04-07T00:13:38;10.90;;;7.67;;
22963;SDS011;11648;49.306;6.934;2023-04-07T00:16:05;12.07;;;7.83;;
22963;SDS011;11648;49.306;6.934;2023-04-07T00:18:32;10.67;;;7.30;;
22963;SDS011;11648;49.306;6.934;2023-04-07T00:20:58;9.73;;;7.47;;
22963;SDS011;11648;49.306;6.934;2023-04-07T00:23:25;9.00;;;7.30;;
22963;SDS011;11648;49.306;6.934;2023-04-07T00:25:52;9.60;;;7.30;;
22963;SDS011;11648;49.306;6.934;2023-04-07T00:28:19;9.93;;;7.37;;
22963;SDS011;11648;49.306;6.934;2023-04-07T00:30:46;9.77;;;7.40;;
22963;SDS011;11648;49.306;6.934;2023-04-07T00:33:13;8.97;;;7.30;;
22963;SDS011;11648;49.306;6.934;2023-04-07T00:35:39;8.37;;;6.93;;
22963;SDS011;11648;49.306;6.934;2023-04-07T00:38:06;11.43;;;7.00;;
22963;SDS011;11648;49.306;6.934;2023-04-07T00:40:33;10.27;;;7.13;;
22963;SDS011;11648;49.306;6.934;2023-04-07T00:43:00;10.67;;;7.30;;
22963;SDS011;11648;49.306;6.934;2023-04-07T00:45:27;9.77;;;7.03;;
22963;SDS011;11648;49.306;6.934;2023-04-07T00:47:55;8.97;;;6.63;;
22963;SDS011;11648;49.306;6.934;2023-04-07T00:50:23;9.87;;;6.93;;
22963;SDS011;11648;49.306;6.934;2023-04-07T00:52:49;9.60;;;7.27;;
22963;SDS011;11648;49.306;6.934;2023-04-07T00:55:16;9.33;;;6.90;;
22963;SDS011;11648;49.306;6.934;2023-04-07T00:57:43;9.17;;;7.00;;
22963;SDS011;11648;49.306;6.934;2023-04-07T01:00:12;10.63;;;7.07;;
22963;SDS011;11648;49.306;6.934;2023-04-07T01:10:55;12.17;;;7.40;;
22963;SDS011;11648;49.306;6.934;2023-04-07T01:13:30;8.70;;;6.83;;
22963;SDS011;11648;49.306;6.934;2023-04-07T01:16:12;10.10;;;7.20;;
22963;SDS011;11648;49.306;6.934;2023-04-07T01:18:49;8.87;;;7.37;;
22963;SDS011;11648;49.306;6.934;2023-04-07T01:21:20;11.77;;;7.03;;
22963;SDS011;11648;49.306;6.934;2023-04-07T01:26:32;9.10;;;6.23;;
22963;SDS011;11648;49.306;6.934;2023-04-07T01:31:44;6.17;;;4.20;;
22963;SDS011;11648;49.306;6.934;2023-04-07T01:34:14;8.70;;;3.90;;
22963;SDS011;11648;49.306;6.934;2023-04-07T01:36:42;8.93;;;4.03;;
22963;SDS011;11648;49.306;6.934;2023-04-07T01:39:12;8.33;;;4.43;;
22963;SDS011;11648;49.306;6.934;2023-04-07T01:41:39;7.53;;;3.93;;
22963;SDS011;11648;49.306;6.934;2023-04-07T01:44:07;6.80;;;4.60;;
22963;SDS011;11648;49.306;6.934;2023-04-07T01:46:35;8.20;;;4.60;;
22963;SDS011;11648;49.306;6.934;2023-04-07T01:49:02;7.47;;;4.43;;
22963;SDS011;11648;49.306;6.934;2023-04-07T01:51:30;8.43;;;4.40;;
22963;SDS011;11648;49.306;6.934;2023-04-07T01:53:59;8.17;;;4.00;;
22963;SDS011;11648;49.306;6.934;2023-04-07T01:56:27;7.43;;;4.17;;
22963;SDS011;11648;49.306;6.934;2023-04-07T01:58:56;8.30;;;3.60;;
22963;SDS011;11648;49.306;6.934;2023-04-07T02:01:23;7.77;;;3.73;;
22963;SDS011;11648;49.306;6.934;2023-04-07T02:06:41;6.03;;;3.23;;
22963;SDS011;11648;49.306;6.934;2023-04-07T02:09:16;6.37;;;2.70;;
22963;SDS011;11648;49.306;6.934;2023-04-07T02:11:46;5.13;;;2.77;;
22963;SDS011;11648;49.306;6.934;2023-04-07T02:14:17;7.70;;;5.17;;
22963;SDS011;11648;49.306;6.934;2023-04-07T02:17:07;9.17;;;6.13;;
22963;SDS011;11648;49.306;6.934;2023-04-07T02:19:34;9.97;;;5.77;;
22963;SDS011;11648;49.306;6.934;2023-04-07T02:22:02;11.33;;;6.50;;
22963;SDS011;11648;49.306;6.934;2023-04-07T02:24:30;8.23;;;5.70;;
22963;SDS011;11648;49.306;6.934;2023-04-07T02:26:57;7.43;;;5.40;;
22963;SDS011;11648;49.306;6.934;2023-04-07T02:29:26;8.30;;;6.20;;
22963;SDS011;11648;49.306;6.934;2023-04-07T02:31:53;10.27;;;5.90;;
22963;SDS011;11648;49.306;6.934;2023-04-07T02:34:21;7.97;;;4.83;;
22963;SDS011;11648;49.306;6.934;2023-04-07T02:36:48;7.73;;;4.00;;
22963;SDS011;11648;49.306;6.934;2023-04-07T02:39:15;7.30;;;3.50;;
22963;SDS011;11648;49.306;6.934;2023-04-07T02:41:42;5.63;;;3.20;;
22963;SDS011;11648;49.306;6.934;2023-04-07T02:44:09;8.77;;;5.57;;
22963;SDS011;11648;49.306;6.934;2023-04-07T02:46:38;9.23;;;5.93;;
22963;SDS011;11648;49.306;6.934;2023-04-07T02:49:06;9.17;;;6.03;;
22963;SDS011;11648;49.306;6.934;2023-04-07T02:51:33;8.97;;;5.97;;
22963;SDS011;11648;49.306;6.934;2023-04-07T02:54:00;10.33;;;6.80;;
22963;SDS011;11648;49.306;6.934;2023-04-07T02:56:27;10.97;;;7.23;;
22963;SDS011;11648;49.306;6.934;2023-04-07T02:58:53;12.00;;;8.13;;
22963;SDS011;11648;49.306;6.934;2023-04-07T03:01:20;11.43;;;8.23;;
22963;SDS011;11648;49.306;6.934;2023-04-07T03:03:47;14.27;;;8.67;;
22963;SDS011;11648;49.306;6.934;2023-04-07T03:06:19;10.97;;;8.33;;
22963;SDS011;11648;49.306;6.934;2023-04-07T03:09:03;10.57;;;8.07;;
22963;SDS011;11648;49.306;6.934;2023-04-07T03:11:31;10.63;;;7.70;;
22963;SDS011;11648;49.306;6.934;2023-04-07T03:13:59;10.20;;;8.00;;
22963;SDS011;11648;49.306;6.934;2023-04-07T03:16:28;10.83;;;7.50;;
22963;SDS011;11648;49.306;6.934;2023-04-07T03:19:04;10.13;;;7.93;;
22963;SDS011;11648;49.306;6.934;2023-04-07T03:21:35;11.70;;;7.80;;
22963;SDS011;11648;49.306;6.934;2023-04-07T03:24:03;12.00;;;8.43;;
22963;SDS011;11648;49.306;6.934;2023-04-07T03:26:31;11.30;;;7.80;;
22963;SDS011;11648;49.306;6.934;2023-04-07T03:28:59;11.90;;;8.67;;
22963;SDS011;11648;49.306;6.934;2023-04-07T03:31:27;10.07;;;7.67;;
22963;SDS011;11648;49.306;6.934;2023-04-07T03:33:55;10.03;;;8.00;;
22963;SDS011;11648;49.306;6.934;2023-04-07T03:36:23;10.87;;;7.47;;
22963;SDS011;11648;49.306;6.934;2023-04-07T03:38:50;10.17;;;6.97;;
22963;SDS011;11648;49.306;6.934;2023-04-07T03:41:17;8.00;;;5.70;;
22963;SDS011;11648;49.306;6.934;2023-04-07T03:43:45;7.37;;;5.50;;
22963;SDS011;11648;49.306;6.934;2023-04-07T03:46:13;8.87;;;5.57;;
22963;SDS011;11648;49.306;6.934;2023-04-07T03:48:41;6.53;;;4.50;;
22963;SDS011;11648;49.306;6.934;2023-04-07T03:51:09;8.63;;;4.93;;
22963;SDS011;11648;49.306;6.934;2023-04-07T03:53:36;9.17;;;4.77;;
22963;SDS011;11648;49.306;6.934;2023-04-07T03:56:15;7.23;;;4.10;;
22963;SDS011;11648;49.306;6.934;2023-04-07T03:58:49;7.80;;;5.07;;
22963;SDS011;11648;49.306;6.934;2023-04-07T04:01:24;7.70;;;5.73;;
22963;SDS011;11648;49.306;6.934;2023-04-07T04:03:52;8.23;;;5.93;;
22963;SDS011;11648;49.306;6.934;2023-04-07T04:06:28;8.50;;;5.80;;
22963;SDS011;11648;49.306;6.934;2023-04-07T04:09:03;9.30;;;6.00;;
22963;SDS011;11648;49.306;6.934;2023-04-07T04:11:33;7.50;;;5.37;;
22963;SDS011;11648;49.306;6.934;2023-04-07T04:14:03;7.33;;;5.40;;
22963;SDS011;11648;49.306;6.934;2023-04-07T04:16:31;8.10;;;5.33;;
22963;SDS011;11648;49.306;6.934;2023-04-07T04:19:02;9.00;;;5.07;;
22963;SDS011;11648;49.306;6.934;2023-04-07T04:21:30;8.73;;;5.27;;
22963;SDS011;11648;49.306;6.934;2023-04-07T04:23:56;8.20;;;5.23;;
22963;SDS011;11648;49.306;6.934;2023-04-07T04:26:25;7.50;;;5.03;;
22963;SDS011;11648;49.306;6.934;2023-04-07T04:28:55;7.83;;;5.17;;
22963;SDS011;11648;49.306;6.934;2023-04-07T04:31:23;8.57;;;5.40;;
22963;SDS011;11648;49.306;6.934;2023-04-07T04:33:50;9.03;;;5.13;;
22963;SDS011;11648;49.306;6.934;2023-04-07T04:36:18;8.93;;;5.50;;
22963;SDS011;11648;49.306;6.934;2023-04-07T04:38:45;11.43;;;5.87;;
22963;SDS011;11648;49.306;6.934;2023-04-07T04:41:15;11.33;;;6.23;;
22963;SDS011;11648;49.306;6.934;2023-04-07T04:43:42;9.37;;;6.07;;
22963;SDS011;11648;49.306;6.934;2023-04-07T04:46:13;10.17;;;7.00;;
22963;SDS011;11648;49.306;6.934;2023-04-07T04:48:41;10.90;;;6.83;;
22963;SDS011;11648;49.306;6.934;2023-04-07T04:51:08;10.93;;;7.00;;
22963;SDS011;11648;49.306;6.934;2023-04-07T04:53:37;12.57;;;6.90;;
22963;SDS011;11648;49.306;6.934;2023-04-07T04:56:05;11.93;;;7.03;;
22963;SDS011;11648;49.306;6.934;2023-04-07T04:58:40;11.73;;;7.27;;
22963;SDS011;11648;49.306;6.934;2023-04-07T05:01:17;12.93;;;7.03;;
22963;SDS011;11648;49.306;6.934;2023-04-07T05:03:52;9.20;;;6.70;;
22963;SDS011;11648;49.306;6.934;2023-04-07T05:06:23;9.43;;;6.77;;
22963;SDS011;11648;49.306;6.934;2023-04-07T05:08:51;10.77;;;6.60;;
22963;SDS011;11648;49.306;6.934;2023-04-07T05:11:22;14.20;;;7.57;;
22963;SDS011;11648;49.306;6.934;2023-04-07T05:13:51;10.63;;;7.07;;
22963;SDS011;11648;49.306;6.934;2023-04-07T05:16:18;11.80;;;7.30;;
22963;SDS011;11648;49.306;6.934;2023-04-07T05:18:46;15.87;;;7.70;;
22963;SDS011;11648;49.306;6.934;2023-04-07T05:21:13;11.70;;;7.33;;
22963;SDS011;11648;49.306;6.934;2023-04-07T05:23:40;10.33;;;7.07;;
22963;SDS011;11648;49.306;6.934;2023-04-07T05:26:09;15.53;;;8.03;;
22963;SDS011;11648;49.306;6.934;2023-04-07T05:28:36;13.00;;;7.37;;
22963;SDS011;11648;49.306;6.934;2023-04-07T05:31:08;10.97;;;7.10;;
22963;SDS011;11648;49.306;6.934;2023-04-07T05:33:34;12.73;;;7.60;;
22963;SDS011;11648;49.306;6.934;2023-04-07T05:36:02;8.80;;;6.67;;
22963;SDS011;11648;49.306;6.934;2023-04-07T05:38:31;9.50;;;6.10;;
22963;SDS011;11648;49.306;6.934;2023-04-07T05:41:06;10.83;;;6.87;;
22963;SDS011;11648;49.306;6.934;2023-04-07T05:43:34;12.60;;;6.97;;
22963;SDS011;11648;49.306;6.934;2023-04-07T05:46:01;10.50;;;7.37;;
22963;SDS011;11648;49.306;6.934;2023-04-07T05:48:29;10.03;;;7.03;;
22963;SDS011;11648;49.306;6.934;2023-04-07T05:50:57;10.73;;;7.37;;
22963;SDS011;11648;49.306;6.934;2023-04-07T05:53:24;10.63;;;6.90;;
22963;SDS011;11648;49.306;6.934;2023-04-07T05:55:50;9.67;;;6.60;;
22963;SDS011;11648;49.306;6.934;2023-04-07T05:58:24;11.40;;;7.43;;
22963;SDS011;11648;49.306;6.934;2023-04-07T06:00:53;11.87;;;7.30;;
22963;SDS011;11648;49.306;6.934;2023-04-07T06:03:20;11.60;;;7.20;;
22963;SDS011;11648;49.306;6.934;2023-04-07T06:05:55;9.93;;;7.10;;
22963;SDS011;11648;49.306;6.934;2023-04-07T06:08:24;10.07;;;7.23;;
22963;SDS011;11648;49.306;6.934;2023-04-07T06:10:51;10.60;;;8.20;;
22963;SDS011;11648;49.306;6.934;2023-04-07T06:13:18;10.93;;;8.43;;
22963;SDS011;11648;49.306;6.934;2023-04-07T06:15:45;12.80;;;9.50;;
22963;SDS011;11648;49.306;6.934;2023-04-07T06:18:12;11.03;;;8.70;;
22963;SDS011;11648;49.306;6.934;2023-04-07T06:20:38;9.83;;;7.97;;
22963;SDS011;11648;49.306;6.934;2023-04-07T06:23:05;12.43;;;7.90;;
22963;SDS011;11648;49.306;6.934;2023-04-07T06:25:32;12.13;;;8.83;;
22963;SDS011;11648;49.306;6.934;2023-04-07T06:27:59;13.47;;;8.90;;
22963;SDS011;11648;49.306;6.934;2023-04-07T06:30:26;13.10;;;8.23;;
22963;SDS011;11648;49.306;6.934;2023-04-07T06:32:53;12.50;;;8.70;;
22963;SDS011;11648;49.306;6.934;2023-04-07T06:35:20;11.33;;;8.47;;
22963;SDS011;11648;49.306;6.934;2023-04-07T06:37:47;11.90;;;8.30;;
22963;SDS011;11648;49.306;6.934;2023-04-07T06:40:14;11.00;;;7.90;;
22963;SDS011;11648;49.306;6.934;2023-04-07T06:42:41;12.50;;;7.70;;
22963;SDS011;11648;49.306;6.934;2023-04-07T06:45:18;9.00;;;6.93;;
22963;SDS011;11648;49.306;6.934;2023-04-07T06:47:45;9.63;;;6.43;;
22963;SDS011;11648;49.306;6.934;2023-04-07T06:50:12;9.43;;;6.30;;
22963;SDS011;11648;49.306;6.934;2023-04-07T06:52:39;9.90;;;6.53;;
22963;SDS011;11648;49.306;6.934;2023-04-07T06:55:05;9.47;;;6.70;;
22963;SDS011;11648;49.306;6.934;2023-04-07T06:57:33;7.50;;;5.90;;
22963;SDS011;11648;49.306;6.934;2023-04-07T06:59:59;8.97;;;7.20;;
22963;SDS011;11648;49.306;6.934;2023-04-07T07:02:26;11.03;;;7.00;;
22963;SDS011;11648;49.306;6.934;2023-04-07T07:04:53;12.63;;;7.97;;
22963;SDS011;11648;49.306;6.934;2023-04-07T07:07:20;10.17;;;7.27;;
22963;SDS011;11648;49.306;6.934;2023-04-07T07:09:47;10.93;;;8.00;;
22963;SDS011;11648;49.306;6.934;2023-04-07T07:12:13;10.83;;;7.13;;
22963;SDS011;11648;49.306;6.934;2023-04-07T07:14:42;11.20;;;7.40;;
22963;SDS011;11648;49.306;6.934;2023-04-07T07:17:09;10.60;;;7.40;;
22963;SDS011;11648;49.306;6.934;2023-04-07T07:19:36;12.03;;;7.53;;
22963;SDS011;11648;49.306;6.934;2023-04-07T07:22:03;10.67;;;7.30;;
22963;SDS011;11648;49.306;6.934;2023-04-07T07:24:30;13.83;;;7.50;;
22963;SDS011;11648;49.306;6.934;2023-04-07T07:26:59;11.97;;;7.33;;
22963;SDS011;11648;49.306;6.934;2023-04-07T07:29:27;10.40;;;7.53;;
22963;SDS011;11648;49.306;6.934;2023-04-07T07:31:54;11.13;;;7.50;;
22963;SDS011;11648;49.306;6.934;2023-04-07T07:34:21;10.63;;;7.40;;
22963;SDS011;11648;49.306;6.934;2023-04-07T07:36:48;10.93;;;7.57;;
22963;SDS011;11648;49.306;6.934;2023-04-07T07:39:15;12.77;;;7.97;;
22963;SDS011;11648;49.306;6.934;2023-04-07T07:41:42;12.53;;;8.37;;
22963;SDS011;11648;49.306;6.934;2023-04-07T07:44:08;14.20;;;7.53;;
22963;SDS011;11648;49.306;6.934;2023-04-07T07:46:35;12.17;;;7.60;;
22963;SDS011;11648;49.306;6.934;2023-04-07T07:49:02;10.03;;;6.27;;
22963;SDS011;11648;49.306;6.934;2023-04-07T07:51:31;12.17;;;7.00;;
22963;SDS011;11648;49.306;6.934;2023-04-07T07:53:57;10.07;;;6.70;;
22963;SDS011;11648;49.306;6.934;2023-04-07T07:56:24;9.77;;;6.50;;
22963;SDS011;11648;49.306;6.934;2023-04-07T07:58:51;12.47;;;6.10;;
22963;SDS011;11648;49.306;6.934;2023-04-07T08:01:18;10.43;;;6.40;;
22963;SDS011;11648;49.306;6.934;2023-04-07T08:03:44;10.07;;;6.23;;
22963;SDS011;11648;49.306;6.934;2023-04-07T08:06:12;10.97;;;6.70;;
22963;SDS011;11648;49.306;6.934;2023-04-07T08:08:39;10.93;;;6.00;;
22963;SDS011;11648;49.306;6.934;2023-04-07T08:11:06;10.70;;;6.23;;
22963;SDS011;11648;49.306;6.934;2023-04-07T08:13:32;10.20;;;5.97;;
22963;SDS011;11648;49.306;6.934;2023-04-07T08:16:00;9.93;;;6.50;;
22963;SDS011;11648;49.306;6.934;2023-04-07T08:18:26;9.83;;;6.60;;
22963;SDS011;11648;49.306;6.934;2023-04-07T08:20:53;11.07;;;6.67;;
22963;SDS011;11648;49.306;6.934;2023-04-07T08:23:21;10.13;;;6.50;;
22963;SDS011;11648;49.306;6.934;2023-04-07T08:25:47;10.20;;;6.30;;
22963;SDS011;11648;49.306;6.934;2023-04-07T08:28:14;11.97;;;6.70;;
22963;SDS011;11648;49.306;6.934;2023-04-07T08:30:41;11.50;;;6.37;;
22963;SDS011;11648;49.306;6.934;2023-04-07T08:33:08;11.13;;;6.80;;
22963;SDS011;11648;49.306;6.934;2023-04-07T08:35:34;11.47;;;6.23;;
22963;SDS011;11648;49.306;6.934;2023-04-07T08:38:01;11.80;;;7.07;;
22963;SDS011;11648;49.306;6.934;2023-04-07T08:40:29;15.13;;;7.10;;
22963;SDS011;11648;49.306;6.934;2023-04-07T08:42:56;10.30;;;6.13;;
22963;SDS011;11648;49.306;6.934;2023-04-07T08:45:25;11.57;;;6.67;;
22963;SDS011;11648;49.306;6.934;2023-04-07T08:47:54;13.67;;;6.90;;
22963;SDS011;11648;49.306;6.934;2023-04-07T08:50:25;12.27;;;7.00;;
22963;SDS011;11648;49.306;6.934;2023-04-07T08:52:53;13.53;;;6.60;;
22963;SDS011;11648;49.306;6.934;2023-04-07T08:55:22;11.13;;;7.23;;
22963;SDS011;11648;49.306;6.934;2023-04-07T08:57:49;15.00;;;8.17;;
22963;SDS011;11648;49.306;6.934;2023-04-07T09:00:17;14.83;;;8.23;;
22963;SDS011;11648;49.306;6.934;2023-04-07T09:02:44;10.23;;;6.93;;
22963;SDS011;11648;49.306;6.934;2023-04-07T09:05:14;10.73;;;5.40;;
22963;SDS011;11648;49.306;6.934;2023-04-07T09:07:41;10.20;;;5.80;;
22963;SDS011;11648;49.306;6.934;2023-04-07T09:10:11;11.27;;;5.67;;
22963;SDS011;11648;49.306;6.934;2023-04-07T09:12:38;9.67;;;5.67;;
22963;SDS011;11648;49.306;6.934;2023-04-07T09:15:05;10.03;;;6.60;;
22963;SDS011;11648;49.306;6.934;2023-04-07T09:17:33;14.67;;;6.90;;
22963;SDS011;11648;49.306;6.934;2023-04-07T09:20:00;9.60;;;6.63;;
22963;SDS011;11648;49.306;6.934;2023-04-07T09:22:34;11.20;;;6.17;;
22963;SDS011;11648;49.306;6.934;2023-04-07T09:25:08;13.27;;;6.83;;
22963;SDS011;11648;49.306;6.934;2023-04-07T09:27:39;9.47;;;5.80;;
22963;SDS011;11648;49.306;6.934;2023-04-07T09:30:09;11.23;;;6.50;;
22963;SDS011;11648;49.306;6.934;2023-04-07T09:32:38;14.03;;;7.20;;
22963;SDS011;11648;49.306;6.934;2023-04-07T09:35:06;12.93;;;6.70;;
22963;SDS011;11648;49.306;6.934;2023-04-07T09:37:33;11.37;;;6.43;;
22963;SDS011;11648;49.306;6.934;2023-04-07T09:40:01;8.93;;;5.17;;
22963;SDS011;11648;49.306;6.934;2023-04-07T09:42:28;12.57;;;6.43;;
22963;SDS011;11648;49.306;6.934;2023-04-07T09:44:58;10.40;;;6.10;;
22963;SDS011;11648;49.306;6.934;2023-04-07T09:47:26;10.77;;;5.77;;
22963;SDS011;11648;49.306;6.934;2023-04-07T09:49:54;9.67;;;6.07;;
22963;SDS011;11648;49.306;6.934;2023-04-07T09:52:24;9.20;;;4.87;;
22963;SDS011;11648;49.306;6.934;2023-04-07T09:55:12;8.23;;;5.00;;
22963;SDS011;11648;49.306;6.934;2023-04-07T09:57:39;13.87;;;6.30;;
22963;SDS011;11648;49.306;6.934;2023-04-07T10:00:08;9.50;;;5.90;;
22963;SDS011;11648;49.306;6.934;2023-04-07T10:02:38;9.97;;;5.57;;
22963;SDS011;11648;49.306;6.934;2023-04-07T10:05:05;12.97;;;6.93;;
22963;SDS011;11648;49.306;6.934;2023-04-07T10:07:33;12.67;;;6.27;;
22963;SDS011;11648;49.306;6.934;2023-04-07T10:10:02;12.00;;;6.10;;
22963;SDS011;11648;49.306;6.934;2023-04-07T10:12:34;12.53;;;5.37;;
22963;SDS011;11648;49.306;6.934;2023-04-07T10:15:06;8.77;;;5.00;;
22963;SDS011;11648;49.306;6.934;2023-04-07T10:17:35;8.77;;;5.40;;
22963;SDS011;11648;49.306;6.934;2023-04-07T10:20:03;8.93;;;4.70;;
22963;SDS011;11648;49.306;6.934;2023-04-07T10:22:32;9.97;;;6.17;;
22963;SDS011;11648;49.306;6.934;2023-04-07T10:25:05;8.20;;;5.30;;
22963;SDS011;11648;49.306;6.934;2023-04-07T10:27:41;13.17;;;7.00;;
22963;SDS011;11648;49.306;6.934;2023-04-07T10:30:17;14.47;;;7.00;;
22963;SDS011;11648;49.306;6.934;2023-04-07T10:32:56;10.30;;;6.70;;
22963;SDS011;11648;49.306;6.934;2023-04-07T10:35:24;10.63;;;6.53;;
22963;SDS011;11648;49.306;6.934;2023-04-07T10:40:36;13.13;;;6.13;;
22963;SDS011;11648;49.306;6.934;2023-04-07T10:43:03;10.03;;;5.57;;
22963;SDS011;11648;49.306;6.934;2023-04-07T10:48:21;9.67;;;5.63;;
22963;SDS011;11648;49.306;6.934;2023-04-07T10:51:31;10.17;;;5.30;;
22963;SDS011;11648;49.306;6.934;2023-04-07T10:59:28;8.60;;;4.90;;
22963;SDS011;11648;49.306;6.934;2023-04-07T11:04:38;6.70;;;5.00;;
22963;SDS011;11648;49.306;6.934;2023-04-07T11:07:06;7.37;;;4.87;;
22963;SDS011;11648;49.306;6.934;2023-04-07T11:09:33;9.93;;;5.13;;
22963;SDS011;11648;49.306;6.934;2023-04-07T11:12:00;8.40;;;5.20;;
22963;SDS011;11648;49.306;6.934;2023-04-07T11:14:28;9.83;;;4.73;;
22963;SDS011;11648;49.306;6.934;2023-04-07T11:16:56;7.73;;;4.80;;
22963;SDS011;11648;49.306;6.934;2023-04-07T11:19:23;8.87;;;5.10;;
22963;SDS011;11648;49.306;6.934;2023-04-07T11:21:50;7.83;;;5.17;;
22963;SDS011;11648;49.306;6.934;2023-04-07T11:24:55;8.63;;;5.07;;
22963;SDS011;11648;49.306;6.934;2023-04-07T11:27:22;7.33;;;5.00;;
22963;SDS011;11648;49.306;6.934;2023-04-07T11:29:49;9.27;;;5.30;;
22963;SDS011;11648;49.306;6.934;2023-04-07T11:32:21;9.67;;;4.90;;
22963;SDS011;11648;49.306;6.934;2023-04-07T11:34:51;7.27;;;4.57;;
22963;SDS011;11648;49.306;6.934;2023-04-07T11:42:35;8.67;;;4.53;;
22963;SDS011;11648;49.306;6.934;2023-04-07T11:45:03;7.07;;;4.43;;
22963;SDS011;11648;49.306;6.934;2023-04-07T11:47:37;7.37;;;4.17;;
22963;SDS011;11648;49.306;6.934;2023-04-07T11:50:05;7.00;;;4.23;;
22963;SDS011;11648;49.306;6.934;2023-04-07T11:52:54;7.20;;;4.57;;
22963;SDS011;11648;49.306;6.934;2023-04-07T11:55:20;6.67;;;4.33;;
22963;SDS011;11648;49.306;6.934;2023-04-07T11:57:50;8.10;;;4.20;;
22963;SDS011;11648;49.306;6.934;2023-04-07T12:00:17;7.40;;;3.97;;
22963;SDS011;11648;49.306;6.934;2023-04-07T12:02:45;5.53;;;3.70;;
22963;SDS011;11648;49.306;6.934;2023-04-07T12:05:12;6.20;;;3.53;;
22963;SDS011;11648;49.306;6.934;2023-04-07T12:07:50;6.03;;;4.23;;
22963;SDS011;11648;49.306;6.934;2023-04-07T12:10:22;5.63;;;3.30;;
22963;SDS011;11648;49.306;6.934;2023-04-07T12:12:53;4.50;;;2.80;;
22963;SDS011;11648;49.306;6.934;2023-04-07T12:15:19;5.43;;;3.00;;
22963;SDS011;11648;49.306;6.934;2023-04-07T12:17:47;5.03;;;3.20;;
22963;SDS011;11648;49.306;6.934;2023-04-07T12:20:14;4.43;;;2.33;;
22963;SDS011;11648;49.306;6.934;2023-04-07T12:22:41;6.80;;;2.60;;
22963;SDS011;11648;49.306;6.934;2023-04-07T12:25:08;4.93;;;2.20;;
22963;SDS011;11648;49.306;6.934;2023-04-07T12:27:35;3.13;;;1.87;;
22963;SDS011;11648;49.306;6.934;2023-04-07T12:30:09;4.30;;;2.00;;
22963;SDS011;11648;49.306;6.934;2023-04-07T12:32:37;5.37;;;2.10;;
22963;SDS011;11648;49.306;6.934;2023-04-07T12:35:04;3.80;;;2.10;;
22963;SDS011;11648;49.306;6.934;2023-04-07T12:37:31;5.37;;;3.00;;
22963;SDS011;11648;49.306;6.934;2023-04-07T12:39:58;4.87;;;2.13;;
22963;SDS011;11648;49.306;6.934;2023-04-07T12:42:26;3.67;;;2.20;;
22963;SDS011;11648;49.306;6.934;2023-04-07T12:44:53;4.07;;;1.90;;
22963;SDS011;11648;49.306;6.934;2023-04-07T12:47:20;5.73;;;2.40;;
22963;SDS011;11648;49.306;6.934;2023-04-07T12:49:48;4.93;;;2.87;;
22963;SDS011;11648;49.306;6.934;2023-04-07T12:52:15;4.97;;;2.57;;
22963;SDS011;11648;49.306;6.934;2023-04-07T12:54:42;4.87;;;2.33;;
22963;SDS011;11648;49.306;6.934;2023-04-07T12:57:10;3.83;;;2.33;;
22963;SDS011;11648;49.306;6.934;2023-04-07T12:59:37;5.67;;;2.93;;
22963;SDS011;11648;49.306;6.934;2023-04-07T13:02:04;5.00;;;3.03;;
22963;SDS011;11648;49.306;6.934;2023-04-07T13:04:32;5.27;;;2.77;;
22963;SDS011;11648;49.306;6.934;2023-04-07T13:07:00;5.43;;;3.03;;
22963;SDS011;11648;49.306;6.934;2023-04-07T13:09:28;5.13;;;3.03;;
22963;SDS011;11648;49.306;6.934;2023-04-07T13:11:55;5.37;;;2.70;;
22963;SDS011;11648;49.306;6.934;2023-04-07T13:14:23;5.10;;;2.70;;
22963;SDS011;11648;49.306;6.934;2023-04-07T13:16:50;6.03;;;2.93;;
22963;SDS011;11648;49.306;6.934;2023-04-07T13:19:18;5.10;;;3.13;;
22963;SDS011;11648;49.306;6.934;2023-04-07T13:21:45;4.73;;;2.80;;
22963;SDS011;11648;49.306;6.934;2023-04-07T13:24:14;4.60;;;3.03;;
22963;SDS011;11648;49.306;6.934;2023-04-07T13:26:41;5.97;;;3.27;;
22963;SDS011;11648;49.306;6.934;2023-04-07T13:29:07;5.87;;;3.30;;
22963;SDS011;11648;49.306;6.934;2023-04-07T13:31:34;5.73;;;3.03;;
22963;SDS011;11648;49.306;6.934;2023-04-07T13:34:01;4.93;;;3.13;;
22963;SDS011;11648;49.306;6.934;2023-04-07T13:36:28;5.30;;;3.33;;
22963;SDS011;11648;49.306;6.934;2023-04-07T13:38:55;4.93;;;3.27;;
22963;SDS011;11648;49.306;6.934;2023-04-07T13:41:22;6.17;;;3.37;;
22963;SDS011;11648;49.306;6.934;2023-04-07T13:43:49;6.80;;;4.00;;
22963;SDS011;11648;49.306;6.934;2023-04-07T13:46:16;6.07;;;3.00;;
22963;SDS011;11648;49.306;6.934;2023-04-07T13:48:54;5.63;;;3.20;;
22963;SDS011;11648;49.306;6.934;2023-04-07T13:51:22;3.67;;;2.00;;
22963;SDS011;11648;49.306;6.934;2023-04-07T13:53:48;3.97;;;2.10;;
22963;SDS011;11648;49.306;6.934;2023-04-07T13:56:15;4.43;;;2.20;;
22963;SDS011;11648;49.306;6.934;2023-04-07T13:58:42;4.60;;;2.23;;
22963;SDS011;11648;49.306;6.934;2023-04-07T14:01:09;5.53;;;2.00;;
22963;SDS011;11648;49.306;6.934;2023-04-07T14:03:36;4.30;;;1.80;;
22963;SDS011;11648;49.306;6.934;2023-04-07T14:06:04;4.07;;;1.80;;
22963;SDS011;11648;49.306;6.934;2023-04-07T14:08:31;2.37;;;1.50;;
22963;SDS011;11648;49.306;6.934;2023-04-07T14:10:58;5.07;;;1.90;;
22963;SDS011;11648;49.306;6.934;2023-04-07T14:13:25;2.83;;;1.70;;
22963;SDS011;11648;49.306;6.934;2023-04-07T14:15:51;4.37;;;2.43;;
22963;SDS011;11648;49.306;6.934;2023-04-07T14:18:19;4.33;;;2.20;;
22963;SDS011;11648;49.306;6.934;2023-04-07T14:20:46;5.87;;;2.80;;
22963;SDS011;11648;49.306;6.934;2023-04-07T14:23:13;4.00;;;2.13;;
22963;SDS011;11648;49.306;6.934;2023-04-07T14:25:46;6.10;;;3.07;;
22963;SDS011;11648;49.306;6.934;2023-04-07T14:28:13;5.07;;;3.00;;
22963;SDS011;11648;49.306;6.934;2023-04-07T14:30:39;4.83;;;2.50;;
22963;SDS011;11648;49.306;6.934;2023-04-07T14:33:06;4.53;;;2.53;;
22963;SDS011;11648;49.306;6.934;2023-04-07T14:35:35;4.10;;;2.20;;
22963;SDS011;11648;49.306;6.934;2023-04-07T14:38:02;3.83;;;2.40;;
22963;SDS011;11648;49.306;6.934;2023-04-07T14:40:29;5.00;;;2.33;;
22963;SDS011;11648;49.306;6.934;2023-04-07T14:42:56;2.73;;;1.93;;
22963;SDS011;11648;49.306;6.934;2023-04-07T14:45:27;4.40;;;2.17;;
22963;SDS011;11648;49.306;6.934;2023-04-07T14:47:54;4.03;;;1.87;;
22963;SDS011;11648;49.306;6.934;2023-04-07T14:50:21;5.17;;;2.53;;
22963;SDS011;11648;49.306;6.934;2023-04-07T14:52:49;4.77;;;2.40;;
22963;SDS011;11648;49.306;6.934;2023-04-07T14:55:16;4.27;;;2.63;;
22963;SDS011;11648;49.306;6.934;2023-04-07T14:57:43;4.87;;;2.73;;
22963;SDS011;11648;49.306;6.934;2023-04-07T15:00:10;5.30;;;3.07;;
22963;SDS011;11648;49.306;6.934;2023-04-07T15:02:37;5.17;;;2.80;;
22963;SDS011;11648;49.306;6.934;2023-04-07T15:05:06;5.27;;;2.77;;
22963;SDS011;11648;49.306;6.934;2023-04-07T15:07:33;5.73;;;3.30;;
22963;SDS011;11648;49.306;6.934;2023-04-07T15:10:00;6.23;;;3.20;;
22963;SDS011;11648;49.306;6.934;2023-04-07T15:12:27;6.10;;;3.00;;
22963;SDS011;11648;49.306;6.934;2023-04-07T15:14:56;5.87;;;3.50;;
22963;SDS011;11648;49.306;6.934;2023-04-07T15:17:23;5.03;;;2.77;;
22963;SDS011;11648;49.306;6.934;2023-04-07T15:20:08;5.37;;;3.10;;
22963;SDS011;11648;49.306;6.934;2023-04-07T15:22:35;4.77;;;3.10;;
22963;SDS011;11648;49.306;6.934;2023-04-07T15:25:01;5.87;;;3.33;;
22963;SDS011;11648;49.306;6.934;2023-04-07T15:27:29;6.57;;;3.60;;